sensor_id;sensor_type;location;lat;lon;timestamp;P1;durP1;ratioP1;P2;durP2;ratioP2
23517;SDS011;11935;50.878;4.392;2022-08-01T00:00:14;3.15;;;1.67;;
23517;SDS011;11935;50.878;4.392;2022-08-01T00:02:40;4.68;;;1.60;;
23517;SDS011;11935;50.878;4.392;2022-08-01T00:05:07;5.68;;;1.80;;
23517;SDS011;11935;50.878;4.392;2022-08-01T00:07:33;3.55;;;1.75;;
23517;SDS011;11935;50.878;4.392;2022-08-01T00:09:59;3.50;;;1.45;;
23517;SDS011;11935;50.878;4.392;2022-08-01T00:12:25;4.90;;;1.67;;
23517;SDS011;11935;50.878;4.392;2022-08-01T00:14:51;6.00;;;2.58;;
23517;SDS011;11935;50.878;4.392;2022-08-01T00:17:17;4.07;;;2.40;;
23517;SDS011;11935;50.878;4.392;2022-08-01T00:19:43;6.22;;;2.72;;
23517;SDS011;11935;50.878;4.392;2022-08-01T00:22:09;6.97;;;3.00;;
23517;SDS011;11935;50.878;4.392;2022-08-01T00:24:35;9.85;;;4.07;;
23517;SDS011;11935;50.878;4.392;2022-08-01T00:27:02;6.50;;;3.50;;
23517;SDS011;11935;50.878;4.392;2022-08-01T00:29:28;6.15;;;3.13;;
23517;SDS011;11935;50.878;4.392;2022-08-01T00:31:54;8.23;;;3.00;;
23517;SDS011;11935;50.878;4.392;2022-08-01T00:34:20;6.30;;;3.30;;
23517;SDS011;11935;50.878;4.392;2022-08-01T00:36:46;8.70;;;3.30;;
23517;SDS011;11935;50.878;4.392;2022-08-01T00:39:12;7.50;;;3.22;;
23517;SDS011;11935;50.878;4.392;2022-08-01T00:41:38;9.02;;;3.20;;
23517;SDS011;11935;50.878;4.392;2022-08-01T00:44:04;7.85;;;3.45;;
23517;SDS011;11935;50.878;4.392;2022-08-01T00:46:31;5.70;;;3.20;;
23517;SDS011;11935;50.878;4.392;2022-08-01T00:48:58;6.20;;;2.95;;
23517;SDS011;11935;50.878;4.392;2022-08-01T00:51:24;6.85;;;3.15;;
23517;SDS011;11935;50.878;4.392;2022-08-01T00:53:51;6.97;;;2.92;;
23517;SDS011;11935;50.878;4.392;2022-08-01T00:56:18;6.88;;;3.13;;
23517;SDS011;11935;50.878;4.392;2022-08-01T00:58:44;6.05;;;3.08;;
23517;SDS011;11935;50.878;4.392;2022-08-01T01:01:10;5.60;;;2.97;;
23517;SDS011;11935;50.878;4.392;2022-08-01T01:03:36;4.82;;;2.42;;
23517;SDS011;11935;50.878;4.392;2022-08-01T01:06:19;5.68;;;2.67;;
23517;SDS011;11935;50.878;4.392;2022-08-01T01:11:28;5.60;;;2.90;;
23517;SDS011;11935;50.878;4.392;2022-08-01T01:14:16;7.57;;;2.70;;
23517;SDS011;11935;50.878;4.392;2022-08-01T01:16:45;6.75;;;2.25;;
23517;SDS011;11935;50.878;4.392;2022-08-01T01:19:14;4.80;;;2.58;;
23517;SDS011;11935;50.878;4.392;2022-08-01T01:32:02;6.55;;;3.58;;
23517;SDS011;11935;50.878;4.392;2022-08-01T01:34:31;8.75;;;4.40;;
23517;SDS011;11935;50.878;4.392;2022-08-01T01:36:58;7.32;;;4.38;;
23517;SDS011;11935;50.878;4.392;2022-08-01T01:39:25;9.25;;;5.32;;
23517;SDS011;11935;50.878;4.392;2022-08-01T01:41:52;14.32;;;6.88;;
23517;SDS011;11935;50.878;4.392;2022-08-01T01:44:19;12.30;;;6.75;;
23517;SDS011;11935;50.878;4.392;2022-08-01T01:46:45;13.20;;;7.75;;
23517;SDS011;11935;50.878;4.392;2022-08-01T01:49:12;16.08;;;8.48;;
23517;SDS011;11935;50.878;4.392;2022-08-01T01:51:38;14.77;;;8.00;;
23517;SDS011;11935;50.878;4.392;2022-08-01T01:54:05;14.23;;;9.15;;
23517;SDS011;11935;50.878;4.392;2022-08-01T01:56:32;21.02;;;10.50;;
23517;SDS011;11935;50.878;4.392;2022-08-01T01:59:00;15.13;;;10.25;;
23517;SDS011;11935;50.878;4.392;2022-08-01T02:01:28;13.43;;;9.38;;
23517;SDS011;11935;50.878;4.392;2022-08-01T02:03:55;15.05;;;9.45;;
23517;SDS011;11935;50.878;4.392;2022-08-01T02:06:23;17.77;;;10.35;;
23517;SDS011;11935;50.878;4.392;2022-08-01T02:08:50;15.73;;;9.77;;
23517;SDS011;11935;50.878;4.392;2022-08-01T02:11:18;20.90;;;11.00;;
23517;SDS011;11935;50.878;4.392;2022-08-01T02:13:53;17.05;;;9.60;;
23517;SDS011;11935;50.878;4.392;2022-08-01T02:16:20;15.85;;;9.68;;
23517;SDS011;11935;50.878;4.392;2022-08-01T02:18:47;18.88;;;10.55;;
23517;SDS011;11935;50.878;4.392;2022-08-01T02:21:14;16.33;;;9.52;;
23517;SDS011;11935;50.878;4.392;2022-08-01T02:23:45;15.63;;;9.68;;
23517;SDS011;11935;50.878;4.392;2022-08-01T02:26:13;12.82;;;8.52;;
23517;SDS011;11935;50.878;4.392;2022-08-01T02:28:50;15.00;;;8.63;;
23517;SDS011;11935;50.878;4.392;2022-08-01T02:31:19;16.77;;;9.75;;
23517;SDS011;11935;50.878;4.392;2022-08-01T02:33:48;17.50;;;9.00;;
23517;SDS011;11935;50.878;4.392;2022-08-01T02:36:16;18.80;;;9.65;;
23517;SDS011;11935;50.878;4.392;2022-08-01T02:38:43;20.05;;;10.13;;
23517;SDS011;11935;50.878;4.392;2022-08-01T02:41:19;20.25;;;10.75;;
23517;SDS011;11935;50.878;4.392;2022-08-01T02:43:47;22.67;;;10.63;;
23517;SDS011;11935;50.878;4.392;2022-08-01T02:46:17;19.63;;;10.55;;
23517;SDS011;11935;50.878;4.392;2022-08-01T02:48:56;23.50;;;10.45;;
23517;SDS011;11935;50.878;4.392;2022-08-01T02:51:24;20.15;;;10.85;;
23517;SDS011;11935;50.878;4.392;2022-08-01T02:53:51;23.67;;;10.50;;
23517;SDS011;11935;50.878;4.392;2022-08-01T02:56:17;20.90;;;10.15;;
23517;SDS011;11935;50.878;4.392;2022-08-01T02:58:46;17.77;;;11.45;;
23517;SDS011;11935;50.878;4.392;2022-08-01T03:01:13;21.90;;;10.43;;
23517;SDS011;11935;50.878;4.392;2022-08-01T03:03:39;24.35;;;11.60;;
23517;SDS011;11935;50.878;4.392;2022-08-01T03:06:06;24.52;;;11.65;;
23517;SDS011;11935;50.878;4.392;2022-08-01T03:08:32;19.73;;;11.20;;
23517;SDS011;11935;50.878;4.392;2022-08-01T03:10:59;24.55;;;12.02;;
23517;SDS011;11935;50.878;4.392;2022-08-01T03:13:27;24.88;;;12.65;;
23517;SDS011;11935;50.878;4.392;2022-08-01T03:15:54;23.02;;;11.95;;
23517;SDS011;11935;50.878;4.392;2022-08-01T03:18:21;23.08;;;12.63;;
23517;SDS011;11935;50.878;4.392;2022-08-01T03:20:48;23.70;;;12.13;;
23517;SDS011;11935;50.878;4.392;2022-08-01T03:23:14;21.60;;;12.18;;
23517;SDS011;11935;50.878;4.392;2022-08-01T03:25:41;24.35;;;12.82;;
23517;SDS011;11935;50.878;4.392;2022-08-01T03:28:10;28.55;;;12.82;;
23517;SDS011;11935;50.878;4.392;2022-08-01T03:30:38;27.63;;;11.88;;
23517;SDS011;11935;50.878;4.392;2022-08-01T03:33:05;25.45;;;13.18;;
23517;SDS011;11935;50.878;4.392;2022-08-01T03:35:35;21.13;;;11.65;;
23517;SDS011;11935;50.878;4.392;2022-08-01T03:38:03;24.75;;;13.82;;
23517;SDS011;11935;50.878;4.392;2022-08-01T03:40:32;26.75;;;12.68;;
23517;SDS011;11935;50.878;4.392;2022-08-01T03:43:05;24.10;;;13.35;;
23517;SDS011;11935;50.878;4.392;2022-08-01T03:45:35;24.13;;;14.13;;
23517;SDS011;11935;50.878;4.392;2022-08-01T03:48:03;25.98;;;13.18;;
23517;SDS011;11935;50.878;4.392;2022-08-01T03:50:30;21.05;;;13.57;;
23517;SDS011;11935;50.878;4.392;2022-08-01T03:52:59;25.27;;;14.38;;
23517;SDS011;11935;50.878;4.392;2022-08-01T03:55:25;22.30;;;14.55;;
23517;SDS011;11935;50.878;4.392;2022-08-01T03:57:52;26.38;;;15.68;;
23517;SDS011;11935;50.878;4.392;2022-08-01T04:00:18;23.80;;;13.93;;
23517;SDS011;11935;50.878;4.392;2022-08-01T04:02:48;26.92;;;13.75;;
23517;SDS011;11935;50.878;4.392;2022-08-01T04:05:14;30.42;;;14.85;;
23517;SDS011;11935;50.878;4.392;2022-08-01T04:07:44;27.42;;;14.32;;
23517;SDS011;11935;50.878;4.392;2022-08-01T04:10:10;28.23;;;15.13;;
23517;SDS011;11935;50.878;4.392;2022-08-01T04:12:36;20.95;;;14.35;;
23517;SDS011;11935;50.878;4.392;2022-08-01T04:15:03;31.13;;;16.02;;
23517;SDS011;11935;50.878;4.392;2022-08-01T04:17:29;21.85;;;14.55;;
23517;SDS011;11935;50.878;4.392;2022-08-01T04:19:55;24.05;;;15.35;;
23517;SDS011;11935;50.878;4.392;2022-08-01T04:22:21;25.60;;;14.95;;
23517;SDS011;11935;50.878;4.392;2022-08-01T04:24:48;24.00;;;15.18;;
23517;SDS011;11935;50.878;4.392;2022-08-01T04:27:17;21.77;;;14.93;;
23517;SDS011;11935;50.878;4.392;2022-08-01T04:29:44;26.75;;;14.70;;
23517;SDS011;11935;50.878;4.392;2022-08-01T04:32:12;25.42;;;15.50;;
23517;SDS011;11935;50.878;4.392;2022-08-01T04:34:39;23.20;;;15.37;;
23517;SDS011;11935;50.878;4.392;2022-08-01T04:37:10;21.65;;;15.07;;
23517;SDS011;11935;50.878;4.392;2022-08-01T04:39:36;25.63;;;15.85;;
23517;SDS011;11935;50.878;4.392;2022-08-01T04:42:05;22.90;;;15.48;;
23517;SDS011;11935;50.878;4.392;2022-08-01T04:44:31;22.55;;;16.27;;
23517;SDS011;11935;50.878;4.392;2022-08-01T04:47:01;27.70;;;15.05;;
23517;SDS011;11935;50.878;4.392;2022-08-01T04:49:29;23.55;;;15.27;;
23517;SDS011;11935;50.878;4.392;2022-08-01T04:51:56;20.02;;;13.80;;
23517;SDS011;11935;50.878;4.392;2022-08-01T04:54:29;19.33;;;13.05;;
23517;SDS011;11935;50.878;4.392;2022-08-01T04:56:58;19.02;;;13.57;;
23517;SDS011;11935;50.878;4.392;2022-08-01T04:59:27;19.65;;;13.82;;
23517;SDS011;11935;50.878;4.392;2022-08-01T05:02:18;26.38;;;14.25;;
23517;SDS011;11935;50.878;4.392;2022-08-01T05:04:45;18.17;;;12.48;;
23517;SDS011;11935;50.878;4.392;2022-08-01T05:07:11;19.48;;;12.32;;
23517;SDS011;11935;50.878;4.392;2022-08-01T05:09:38;18.15;;;11.07;;
23517;SDS011;11935;50.878;4.392;2022-08-01T05:12:06;17.52;;;11.60;;
23517;SDS011;11935;50.878;4.392;2022-08-01T05:14:32;12.70;;;10.23;;
23517;SDS011;11935;50.878;4.392;2022-08-01T05:16:59;14.13;;;9.70;;
23517;SDS011;11935;50.878;4.392;2022-08-01T05:19:28;18.48;;;11.05;;
23517;SDS011;11935;50.878;4.392;2022-08-01T05:21:54;13.25;;;9.02;;
23517;SDS011;11935;50.878;4.392;2022-08-01T05:24:20;13.57;;;9.65;;
23517;SDS011;11935;50.878;4.392;2022-08-01T05:26:47;13.93;;;8.80;;
23517;SDS011;11935;50.878;4.392;2022-08-01T05:29:14;15.00;;;9.25;;
23517;SDS011;11935;50.878;4.392;2022-08-01T05:31:40;15.50;;;9.65;;
23517;SDS011;11935;50.878;4.392;2022-08-01T05:34:06;13.60;;;9.60;;
23517;SDS011;11935;50.878;4.392;2022-08-01T05:36:32;12.73;;;9.52;;
23517;SDS011;11935;50.878;4.392;2022-08-01T05:38:58;13.15;;;9.50;;
23517;SDS011;11935;50.878;4.392;2022-08-01T05:41:24;11.85;;;9.57;;
23517;SDS011;11935;50.878;4.392;2022-08-01T05:43:51;10.38;;;7.70;;
23517;SDS011;11935;50.878;4.392;2022-08-01T05:46:17;11.70;;;9.13;;
23517;SDS011;11935;50.878;4.392;2022-08-01T05:48:43;14.32;;;8.98;;
23517;SDS011;11935;50.878;4.392;2022-08-01T05:51:09;12.63;;;7.88;;
23517;SDS011;11935;50.878;4.392;2022-08-01T05:53:35;13.25;;;7.72;;
23517;SDS011;11935;50.878;4.392;2022-08-01T05:56:01;9.88;;;8.05;;
23517;SDS011;11935;50.878;4.392;2022-08-01T05:58:27;11.82;;;7.53;;
23517;SDS011;11935;50.878;4.392;2022-08-01T06:00:53;10.85;;;7.82;;
23517;SDS011;11935;50.878;4.392;2022-08-01T06:03:19;11.05;;;7.88;;
23517;SDS011;11935;50.878;4.392;2022-08-01T06:05:46;9.68;;;7.60;;
23517;SDS011;11935;50.878;4.392;2022-08-01T06:08:12;12.52;;;7.95;;
23517;SDS011;11935;50.878;4.392;2022-08-01T06:10:37;16.38;;;7.40;;
23517;SDS011;11935;50.878;4.392;2022-08-01T06:13:04;11.73;;;7.30;;
23517;SDS011;11935;50.878;4.392;2022-08-01T06:15:30;11.65;;;7.25;;
23517;SDS011;11935;50.878;4.392;2022-08-01T06:17:56;14.13;;;7.25;;
23517;SDS011;11935;50.878;4.392;2022-08-01T06:20:22;11.07;;;6.90;;
23517;SDS011;11935;50.878;4.392;2022-08-01T06:22:48;11.82;;;6.50;;
23517;SDS011;11935;50.878;4.392;2022-08-01T06:25:16;12.82;;;7.22;;
23517;SDS011;11935;50.878;4.392;2022-08-01T06:27:42;15.82;;;7.78;;
23517;SDS011;11935;50.878;4.392;2022-08-01T06:30:09;10.52;;;6.03;;
23517;SDS011;11935;50.878;4.392;2022-08-01T06:32:35;8.30;;;6.50;;
23517;SDS011;11935;50.878;4.392;2022-08-01T06:35:01;8.25;;;6.22;;
23517;SDS011;11935;50.878;4.392;2022-08-01T06:37:31;6.82;;;5.35;;
23517;SDS011;11935;50.878;4.392;2022-08-01T06:40:00;6.32;;;5.20;;
23517;SDS011;11935;50.878;4.392;2022-08-01T06:42:27;7.32;;;5.10;;
23517;SDS011;11935;50.878;4.392;2022-08-01T06:44:53;7.47;;;5.40;;
23517;SDS011;11935;50.878;4.392;2022-08-01T06:47:19;8.90;;;5.32;;
23517;SDS011;11935;50.878;4.392;2022-08-01T06:49:45;6.53;;;4.43;;
23517;SDS011;11935;50.878;4.392;2022-08-01T06:52:11;6.25;;;3.90;;
23517;SDS011;11935;50.878;4.392;2022-08-01T06:54:37;6.72;;;3.90;;
23517;SDS011;11935;50.878;4.392;2022-08-01T06:57:07;5.55;;;3.60;;
23517;SDS011;11935;50.878;4.392;2022-08-01T06:59:33;4.57;;;3.97;;
23517;SDS011;11935;50.878;4.392;2022-08-01T07:01:59;8.65;;;3.95;;
23517;SDS011;11935;50.878;4.392;2022-08-01T07:04:26;5.93;;;3.63;;
23517;SDS011;11935;50.878;4.392;2022-08-01T07:06:52;4.00;;;3.03;;
23517;SDS011;11935;50.878;4.392;2022-08-01T07:09:18;6.13;;;3.72;;
23517;SDS011;11935;50.878;4.392;2022-08-01T07:11:44;5.28;;;2.65;;
23517;SDS011;11935;50.878;4.392;2022-08-01T07:14:10;4.00;;;2.40;;
23517;SDS011;11935;50.878;4.392;2022-08-01T07:16:36;4.63;;;1.92;;
23517;SDS011;11935;50.878;4.392;2022-08-01T07:19:02;3.38;;;2.08;;
23517;SDS011;11935;50.878;4.392;2022-08-01T07:21:28;4.13;;;2.00;;
23517;SDS011;11935;50.878;4.392;2022-08-01T07:23:54;4.63;;;2.15;;
23517;SDS011;11935;50.878;4.392;2022-08-01T07:26:21;4.45;;;3.03;;
23517;SDS011;11935;50.878;4.392;2022-08-01T07:28:47;4.38;;;2.70;;
23517;SDS011;11935;50.878;4.392;2022-08-01T07:31:13;3.67;;;2.75;;
23517;SDS011;11935;50.878;4.392;2022-08-01T07:33:39;4.70;;;2.63;;
23517;SDS011;11935;50.878;4.392;2022-08-01T07:36:05;3.88;;;2.10;;
23517;SDS011;11935;50.878;4.392;2022-08-01T07:38:31;3.58;;;2.42;;
23517;SDS011;11935;50.878;4.392;2022-08-01T07:40:57;3.38;;;2.20;;
23517;SDS011;11935;50.878;4.392;2022-08-01T07:43:23;5.50;;;1.98;;
23517;SDS011;11935;50.878;4.392;2022-08-01T07:45:49;3.45;;;1.65;;
23517;SDS011;11935;50.878;4.392;2022-08-01T07:48:15;2.25;;;1.40;;
23517;SDS011;11935;50.878;4.392;2022-08-01T07:50:41;1.98;;;1.25;;
23517;SDS011;11935;50.878;4.392;2022-08-01T07:53:07;1.58;;;1.35;;
23517;SDS011;11935;50.878;4.392;2022-08-01T07:55:35;2.63;;;1.25;;
23517;SDS011;11935;50.878;4.392;2022-08-01T07:58:01;1.70;;;1.58;;
23517;SDS011;11935;50.878;4.392;2022-08-01T08:00:27;3.08;;;1.60;;
23517;SDS011;11935;50.878;4.392;2022-08-01T08:02:53;2.60;;;1.30;;
23517;SDS011;11935;50.878;4.392;2022-08-01T08:05:19;3.08;;;1.30;;
23517;SDS011;11935;50.878;4.392;2022-08-01T08:07:45;3.28;;;1.10;;
23517;SDS011;11935;50.878;4.392;2022-08-01T08:10:11;3.17;;;1.20;;
23517;SDS011;11935;50.878;4.392;2022-08-01T08:12:37;5.60;;;2.00;;
23517;SDS011;11935;50.878;4.392;2022-08-01T08:15:04;3.60;;;1.58;;
23517;SDS011;11935;50.878;4.392;2022-08-01T08:17:30;2.55;;;1.35;;
23517;SDS011;11935;50.878;4.392;2022-08-01T08:19:57;8.45;;;4.78;;
23517;SDS011;11935;50.878;4.392;2022-08-01T08:22:23;4.53;;;1.40;;
23517;SDS011;11935;50.878;4.392;2022-08-01T08:24:49;3.15;;;1.30;;
23517;SDS011;11935;50.878;4.392;2022-08-01T08:27:15;1.80;;;1.20;;
23517;SDS011;11935;50.878;4.392;2022-08-01T08:29:41;4.78;;;1.58;;
23517;SDS011;11935;50.878;4.392;2022-08-01T08:32:07;2.60;;;1.02;;
23517;SDS011;11935;50.878;4.392;2022-08-01T08:34:34;2.00;;;1.05;;
23517;SDS011;11935;50.878;4.392;2022-08-01T08:37:00;2.75;;;1.10;;
23517;SDS011;11935;50.878;4.392;2022-08-01T08:39:26;1.98;;;1.00;;
23517;SDS011;11935;50.878;4.392;2022-08-01T08:41:54;10.25;;;2.42;;
23517;SDS011;11935;50.878;4.392;2022-08-01T08:44:22;1.85;;;0.80;;
23517;SDS011;11935;50.878;4.392;2022-08-01T08:46:49;1.58;;;1.20;;
23517;SDS011;11935;50.878;4.392;2022-08-01T08:49:17;3.35;;;1.10;;
23517;SDS011;11935;50.878;4.392;2022-08-01T08:51:44;1.73;;;0.93;;
23517;SDS011;11935;50.878;4.392;2022-08-01T08:54:12;2.75;;;0.80;;
23517;SDS011;11935;50.878;4.392;2022-08-01T08:56:39;2.40;;;0.90;;
23517;SDS011;11935;50.878;4.392;2022-08-01T08:59:06;2.83;;;1.10;;
23517;SDS011;11935;50.878;4.392;2022-08-01T09:01:32;1.38;;;0.90;;
23517;SDS011;11935;50.878;4.392;2022-08-01T09:04:00;5.28;;;1.20;;
23517;SDS011;11935;50.878;4.392;2022-08-01T09:06:26;2.28;;;0.90;;
23517;SDS011;11935;50.878;4.392;2022-08-01T09:08:53;2.28;;;0.90;;
23517;SDS011;11935;50.878;4.392;2022-08-01T09:11:19;2.55;;;1.00;;
23517;SDS011;11935;50.878;4.392;2022-08-01T09:14:01;3.17;;;0.80;;
23517;SDS011;11935;50.878;4.392;2022-08-01T09:16:28;1.20;;;0.70;;
23517;SDS011;11935;50.878;4.392;2022-08-01T09:18:54;2.78;;;0.90;;
23517;SDS011;11935;50.878;4.392;2022-08-01T09:21:31;1.88;;;0.90;;
23517;SDS011;11935;50.878;4.392;2022-08-01T09:23:57;1.50;;;0.70;;
23517;SDS011;11935;50.878;4.392;2022-08-01T09:26:29;1.63;;;0.88;;
23517;SDS011;11935;50.878;4.392;2022-08-01T09:28:55;2.92;;;1.08;;
23517;SDS011;11935;50.878;4.392;2022-08-01T09:31:21;0.95;;;0.60;;
23517;SDS011;11935;50.878;4.392;2022-08-01T09:36:13;1.15;;;0.80;;
23517;SDS011;11935;50.878;4.392;2022-08-01T09:38:40;1.67;;;0.88;;
23517;SDS011;11935;50.878;4.392;2022-08-01T09:41:06;3.28;;;1.00;;
23517;SDS011;11935;50.878;4.392;2022-08-01T09:43:32;1.55;;;0.75;;
23517;SDS011;11935;50.878;4.392;2022-08-01T09:45:59;1.42;;;0.70;;
23517;SDS011;11935;50.878;4.392;2022-08-01T09:48:29;0.80;;;0.60;;
23517;SDS011;11935;50.878;4.392;2022-08-01T09:50:57;2.05;;;0.60;;
23517;SDS011;11935;50.878;4.392;2022-08-01T09:53:24;2.15;;;0.90;;
23517;SDS011;11935;50.878;4.392;2022-08-01T09:55:50;0.93;;;0.68;;
23517;SDS011;11935;50.878;4.392;2022-08-01T09:58:17;3.70;;;0.70;;
23517;SDS011;11935;50.878;4.392;2022-08-01T10:00:46;2.38;;;0.60;;
23517;SDS011;11935;50.878;4.392;2022-08-01T10:03:26;3.58;;;0.60;;
23517;SDS011;11935;50.878;4.392;2022-08-01T10:05:54;1.75;;;0.40;;
23517;SDS011;11935;50.878;4.392;2022-08-01T10:08:22;1.63;;;0.50;;
23517;SDS011;11935;50.878;4.392;2022-08-01T10:11:09;1.38;;;0.50;;
23517;SDS011;11935;50.878;4.392;2022-08-01T10:13:35;2.70;;;0.63;;
23517;SDS011;11935;50.878;4.392;2022-08-01T10:16:02;1.38;;;0.50;;
23517;SDS011;11935;50.878;4.392;2022-08-01T10:18:30;2.28;;;0.55;;
23517;SDS011;11935;50.878;4.392;2022-08-01T10:20:57;1.08;;;0.57;;
23517;SDS011;11935;50.878;4.392;2022-08-01T10:23:24;2.83;;;1.10;;
23517;SDS011;11935;50.878;4.392;2022-08-01T10:25:50;1.42;;;1.10;;
23517;SDS011;11935;50.878;4.392;2022-08-01T10:28:18;2.72;;;1.20;;
23517;SDS011;11935;50.878;4.392;2022-08-01T10:30:45;3.08;;;1.15;;
23517;SDS011;11935;50.878;4.392;2022-08-01T10:33:11;2.60;;;1.65;;
23517;SDS011;11935;50.878;4.392;2022-08-01T10:35:40;1.40;;;1.20;;
23517;SDS011;11935;50.878;4.392;2022-08-01T10:38:07;2.28;;;1.20;;
23517;SDS011;11935;50.878;4.392;2022-08-01T10:40:33;1.42;;;1.00;;
23517;SDS011;11935;50.878;4.392;2022-08-01T10:42:59;2.92;;;1.00;;
23517;SDS011;11935;50.878;4.392;2022-08-01T10:45:25;3.53;;;1.13;;
23517;SDS011;11935;50.878;4.392;2022-08-01T10:48:06;1.73;;;0.80;;
23517;SDS011;11935;50.878;4.392;2022-08-01T10:50:44;1.33;;;0.63;;
23517;SDS011;11935;50.878;4.392;2022-08-01T10:53:12;2.55;;;0.90;;
23517;SDS011;11935;50.878;4.392;2022-08-01T10:55:58;1.67;;;1.10;;
23517;SDS011;11935;50.878;4.392;2022-08-01T10:58:35;1.10;;;0.40;;
23517;SDS011;11935;50.878;4.392;2022-08-01T11:03:40;3.20;;;0.70;;
23517;SDS011;11935;50.878;4.392;2022-08-01T11:06:07;1.38;;;0.65;;
23517;SDS011;11935;50.878;4.392;2022-08-01T11:08:41;2.47;;;0.40;;
23517;SDS011;11935;50.878;4.392;2022-08-01T11:11:08;2.70;;;0.80;;
23517;SDS011;11935;50.878;4.392;2022-08-01T11:16:25;2.28;;;0.30;;
23517;SDS011;11935;50.878;4.392;2022-08-01T11:18:52;1.48;;;0.30;;
23517;SDS011;11935;50.878;4.392;2022-08-01T11:21:18;2.15;;;0.60;;
23517;SDS011;11935;50.878;4.392;2022-08-01T11:23:48;1.00;;;0.45;;
23517;SDS011;11935;50.878;4.392;2022-08-01T11:26:15;0.70;;;0.40;;
23517;SDS011;11935;50.878;4.392;2022-08-01T11:28:41;1.97;;;0.60;;
23517;SDS011;11935;50.878;4.392;2022-08-01T11:38:39;1.75;;;0.50;;
23517;SDS011;11935;50.878;4.392;2022-08-01T11:41:10;1.30;;;0.50;;
23517;SDS011;11935;50.878;4.392;2022-08-01T11:51:57;1.20;;;0.40;;
23517;SDS011;11935;50.878;4.392;2022-08-01T11:54:30;4.68;;;0.77;;
23517;SDS011;11935;50.878;4.392;2022-08-01T11:56:57;1.10;;;0.50;;
23517;SDS011;11935;50.878;4.392;2022-08-01T11:59:23;2.28;;;0.50;;
23517;SDS011;11935;50.878;4.392;2022-08-01T12:01:49;4.57;;;0.63;;
23517;SDS011;11935;50.878;4.392;2022-08-01T12:04:15;0.63;;;0.40;;
23517;SDS011;11935;50.878;4.392;2022-08-01T12:06:41;2.53;;;0.50;;
23517;SDS011;11935;50.878;4.392;2022-08-01T12:09:15;2.00;;;0.60;;
23517;SDS011;11935;50.878;4.392;2022-08-01T12:11:41;2.90;;;1.25;;
23517;SDS011;11935;50.878;4.392;2022-08-01T12:14:07;1.17;;;0.50;;
23517;SDS011;11935;50.878;4.392;2022-08-01T12:16:33;2.80;;;0.60;;
23517;SDS011;11935;50.878;4.392;2022-08-01T12:18:59;1.73;;;0.50;;
23517;SDS011;11935;50.878;4.392;2022-08-01T12:21:25;2.30;;;0.60;;
23517;SDS011;11935;50.878;4.392;2022-08-01T12:24:01;2.65;;;0.47;;
23517;SDS011;11935;50.878;4.392;2022-08-01T12:26:41;4.50;;;1.20;;
23517;SDS011;11935;50.878;4.392;2022-08-01T12:29:07;2.55;;;0.80;;
23517;SDS011;11935;50.878;4.392;2022-08-01T12:31:33;0.75;;;0.55;;
23517;SDS011;11935;50.878;4.392;2022-08-01T12:36:54;2.45;;;0.60;;
23517;SDS011;11935;50.878;4.392;2022-08-01T12:39:33;5.53;;;1.10;;
23517;SDS011;11935;50.878;4.392;2022-08-01T12:41:59;1.42;;;0.88;;
23517;SDS011;11935;50.878;4.392;2022-08-01T12:44:29;2.50;;;0.85;;
23517;SDS011;11935;50.878;4.392;2022-08-01T12:46:55;0.98;;;0.60;;
23517;SDS011;11935;50.878;4.392;2022-08-01T12:49:22;1.33;;;0.50;;
23517;SDS011;11935;50.878;4.392;2022-08-01T12:51:48;1.27;;;0.67;;
23517;SDS011;11935;50.878;4.392;2022-08-01T12:54:14;5.53;;;0.82;;
23517;SDS011;11935;50.878;4.392;2022-08-01T12:56:40;4.43;;;0.93;;
23517;SDS011;11935;50.878;4.392;2022-08-01T12:59:19;2.65;;;0.60;;
23517;SDS011;11935;50.878;4.392;2022-08-01T13:01:46;1.17;;;0.40;;
23517;SDS011;11935;50.878;4.392;2022-08-01T13:04:12;2.33;;;0.82;;
23517;SDS011;11935;50.878;4.392;2022-08-01T13:06:38;3.17;;;0.60;;
23517;SDS011;11935;50.878;4.392;2022-08-01T13:09:05;1.65;;;0.70;;
23517;SDS011;11935;50.878;4.392;2022-08-01T13:11:31;1.98;;;0.60;;
23517;SDS011;11935;50.878;4.392;2022-08-01T13:13:57;3.33;;;0.60;;
23517;SDS011;11935;50.878;4.392;2022-08-01T13:16:24;2.10;;;0.70;;
23517;SDS011;11935;50.878;4.392;2022-08-01T13:18:51;1.80;;;0.60;;
23517;SDS011;11935;50.878;4.392;2022-08-01T13:21:20;1.15;;;0.60;;
23517;SDS011;11935;50.878;4.392;2022-08-01T13:24:03;1.17;;;0.57;;
23517;SDS011;11935;50.878;4.392;2022-08-01T13:26:42;2.65;;;0.75;;
23517;SDS011;11935;50.878;4.392;2022-08-01T13:29:09;3.65;;;0.65;;
23517;SDS011;11935;50.878;4.392;2022-08-01T13:31:35;3.05;;;1.20;;
23517;SDS011;11935;50.878;4.392;2022-08-01T13:34:02;2.78;;;1.00;;
23517;SDS011;11935;50.878;4.392;2022-08-01T13:36:28;3.75;;;0.50;;
23517;SDS011;11935;50.878;4.392;2022-08-01T13:38:56;1.83;;;0.40;;
23517;SDS011;11935;50.878;4.392;2022-08-01T13:41:41;3.25;;;0.60;;
23517;SDS011;11935;50.878;4.392;2022-08-01T13:44:07;2.23;;;0.80;;
23517;SDS011;11935;50.878;4.392;2022-08-01T13:46:34;0.57;;;0.40;;
23517;SDS011;11935;50.878;4.392;2022-08-01T13:49:01;1.35;;;0.50;;
23517;SDS011;11935;50.878;4.392;2022-08-01T13:51:27;2.13;;;0.45;;
23517;SDS011;11935;50.878;4.392;2022-08-01T13:53:53;2.22;;;0.55;;
23517;SDS011;11935;50.878;4.392;2022-08-01T13:56:19;1.38;;;0.60;;
23517;SDS011;11935;50.878;4.392;2022-08-01T13:58:46;2.78;;;0.70;;
23517;SDS011;11935;50.878;4.392;2022-08-01T14:01:12;1.83;;;0.50;;
23517;SDS011;11935;50.878;4.392;2022-08-01T14:03:38;2.33;;;0.50;;
23517;SDS011;11935;50.878;4.392;2022-08-01T14:06:04;2.35;;;0.60;;
23517;SDS011;11935;50.878;4.392;2022-08-01T14:08:31;1.65;;;0.68;;
23517;SDS011;11935;50.878;4.392;2022-08-01T14:10:57;3.67;;;0.50;;
23517;SDS011;11935;50.878;4.392;2022-08-01T14:13:26;4.73;;;0.60;;
23517;SDS011;11935;50.878;4.392;2022-08-01T14:15:53;2.03;;;0.63;;
23517;SDS011;11935;50.878;4.392;2022-08-01T14:18:19;2.30;;;0.57;;
23517;SDS011;11935;50.878;4.392;2022-08-01T14:20:46;0.80;;;0.40;;
23517;SDS011;11935;50.878;4.392;2022-08-01T14:23:12;2.50;;;0.43;;
23517;SDS011;11935;50.878;4.392;2022-08-01T14:25:38;1.85;;;0.43;;
23517;SDS011;11935;50.878;4.392;2022-08-01T14:28:04;1.63;;;0.70;;
23517;SDS011;11935;50.878;4.392;2022-08-01T14:30:31;1.25;;;0.55;;
23517;SDS011;11935;50.878;4.392;2022-08-01T14:32:57;3.13;;;0.60;;
23517;SDS011;11935;50.878;4.392;2022-08-01T14:35:23;1.43;;;0.50;;
23517;SDS011;11935;50.878;4.392;2022-08-01T14:37:49;3.20;;;0.68;;
23517;SDS011;11935;50.878;4.392;2022-08-01T14:40:15;0.70;;;0.60;;
23517;SDS011;11935;50.878;4.392;2022-08-01T14:42:41;2.80;;;0.68;;
23517;SDS011;11935;50.878;4.392;2022-08-01T14:45:09;4.20;;;0.68;;
23517;SDS011;11935;50.878;4.392;2022-08-01T14:47:36;2.60;;;0.57;;
23517;SDS011;11935;50.878;4.392;2022-08-01T14:50:07;1.42;;;0.50;;
23517;SDS011;11935;50.878;4.392;2022-08-01T14:52:34;1.77;;;0.43;;
23517;SDS011;11935;50.878;4.392;2022-08-01T14:55:00;0.77;;;0.50;;
23517;SDS011;11935;50.878;4.392;2022-08-01T14:57:26;0.85;;;0.40;;
23517;SDS011;11935;50.878;4.392;2022-08-01T14:59:52;2.08;;;0.60;;
23517;SDS011;11935;50.878;4.392;2022-08-01T15:02:18;1.35;;;0.50;;
23517;SDS011;11935;50.878;4.392;2022-08-01T15:04:44;2.03;;;0.73;;
23517;SDS011;11935;50.878;4.392;2022-08-01T15:07:10;1.58;;;0.47;;
23517;SDS011;11935;50.878;4.392;2022-08-01T15:09:36;2.35;;;0.60;;
23517;SDS011;11935;50.878;4.392;2022-08-01T15:12:03;2.40;;;0.50;;
23517;SDS011;11935;50.878;4.392;2022-08-01T15:14:29;2.05;;;0.60;;
23517;SDS011;11935;50.878;4.392;2022-08-01T15:17:14;3.85;;;0.65;;
23517;SDS011;11935;50.878;4.392;2022-08-01T15:19:40;6.00;;;0.50;;
23517;SDS011;11935;50.878;4.392;2022-08-01T15:22:06;1.83;;;0.68;;